createdAt,value
2018-05-10T00:00:15.144Z,0.00
2018-05-10T00:01:15.216Z,0.00
2018-05-10T00:02:15.244Z,0.00
2018-05-10T00:03:15.313Z,0.00
2018-05-10T00:04:15.339Z,0.00
2018-05-10T00:05:15.387Z,0.00
2018-05-10T00:06:15.441Z,0.00
2018-05-10T00:07:15.488Z,0.00
2018-05-10T00:08:15.559Z,0.00
2018-05-10T00:09:15.584Z,0.00
2018-05-10T00:10:15.635Z,0.00
2018-05-10T00:11:15.680Z,0.00
2018-05-10T00:12:15.752Z,0.00
2018-05-10T00:13:15.831Z,0.00
2018-05-10T00:14:15.833Z,0.00
2018-05-10T00:15:15.878Z,0.00
2018-05-10T00:16:15.924Z,0.00
2018-05-10T00:17:15.997Z,0.00
2018-05-10T00:18:16.025Z,0.00
2018-05-10T00:19:16.102Z,0.00
2018-05-10T00:20:16.124Z,0.00
2018-05-10T00:21:16.167Z,0.00
2018-05-10T00:22:16.219Z,0.00
2018-05-10T00:23:16.270Z,0.00
2018-05-10T00:24:16.423Z,0.00
2018-05-10T00:25:16.366Z,0.00
2018-05-10T00:26:16.412Z,0.00
2018-05-10T00:27:16.467Z,0.00
2018-05-10T00:28:16.509Z,0.00
2018-05-10T00:29:16.579Z,0.00
2018-05-10T00:30:16.605Z,0.00
2018-05-10T00:31:16.667Z,0.00
2018-05-10T00:32:16.701Z,0.00
2018-05-10T00:33:16.749Z,0.00
2018-05-10T00:34:16.824Z,0.00
2018-05-10T00:35:16.849Z,0.00
2018-05-10T00:36:16.903Z,0.00
2018-05-10T00:37:16.946Z,0.00
2018-05-10T00:38:16.993Z,0.00
2018-05-10T00:39:17.074Z,0.00
2018-05-10T00:40:17.099Z,0.00
2018-05-10T00:41:17.139Z,0.00
2018-05-10T00:42:17.191Z,0.00
2018-05-10T00:43:17.235Z,0.00
2018-05-10T00:44:17.316Z,0.00
2018-05-10T00:45:17.357Z,0.00
2018-05-10T00:46:17.382Z,0.00
2018-05-10T00:47:17.434Z,0.00
2018-05-10T00:48:17.481Z,0.00
2018-05-10T00:49:17.530Z,0.00
2018-05-10T00:50:17.599Z,0.00
2018-05-10T00:51:17.656Z,0.00
2018-05-10T00:52:17.674Z,0.00
2018-05-10T00:53:17.723Z,0.00
2018-05-10T00:54:17.772Z,0.00
2018-05-10T00:55:17.819Z,0.00
2018-05-10T00:56:17.903Z,0.00
2018-05-10T00:57:17.919Z,0.00
2018-05-10T00:58:17.966Z,0.00
2018-05-10T00:59:18.018Z,0.00
2018-05-10T01:00:18.062Z,0.00
2018-05-10T01:01:18.138Z,0.00
2018-05-10T01:02:18.160Z,0.00
2018-05-10T01:03:18.235Z,0.00
2018-05-10T01:04:18.260Z,0.00
2018-05-10T01:05:18.310Z,0.00
2018-05-10T01:06:18.357Z,0.00
2018-05-10T01:07:18.429Z,0.00
2018-05-10T01:08:18.460Z,0.00
2018-05-10T01:09:18.503Z,0.00
2018-05-10T01:10:18.574Z,0.00
2018-05-10T01:11:18.600Z,0.00
2018-05-10T01:12:18.649Z,0.00
2018-05-10T01:13:18.698Z,0.00
2018-05-10T01:14:18.745Z,0.00
2018-05-10T01:15:18.818Z,0.00
2018-05-10T01:16:18.847Z,0.00
2018-05-10T01:17:18.914Z,0.00
2018-05-10T01:18:18.952Z,0.00
2018-05-10T01:19:18.990Z,0.00
2018-05-10T01:20:19.037Z,0.00
2018-05-10T01:21:19.085Z,0.00
2018-05-10T01:22:19.169Z,0.00
2018-05-10T01:23:19.184Z,0.00
2018-05-10T01:24:19.231Z,0.00
2018-05-10T01:25:19.280Z,0.00
2018-05-10T01:26:19.332Z,0.00
2018-05-10T01:27:19.409Z,0.00
2018-05-10T01:28:19.429Z,0.00
2018-05-10T01:29:19.477Z,0.00
2018-05-10T01:30:19.524Z,0.00
2018-05-10T01:31:19.574Z,0.00
2018-05-10T01:32:19.650Z,0.00
2018-05-10T01:33:19.673Z,0.00
2018-05-10T01:34:19.720Z,0.00
2018-05-10T01:35:19.774Z,0.00
2018-05-10T01:36:19.815Z,0.00
2018-05-10T01:37:19.904Z,0.00
2018-05-10T01:38:19.915Z,0.00
2018-05-10T01:39:19.963Z,0.00
2018-05-10T01:40:20.010Z,0.00
2018-05-10T01:41:20.060Z,0.00
2018-05-10T01:42:20.143Z,0.00
2018-05-10T01:43:20.156Z,0.00
2018-05-10T01:44:20.205Z,0.00
2018-05-10T01:45:21.263Z,0.00
2018-05-10T01:46:20.302Z,0.00
2018-05-10T01:47:20.376Z,0.00
2018-05-10T01:48:20.398Z,0.00
2018-05-10T01:49:20.472Z,0.00
2018-05-10T01:50:20.501Z,0.00
2018-05-10T01:51:20.546Z,0.00
2018-05-10T01:52:20.602Z,0.00
2018-05-10T01:53:20.666Z,0.00
2018-05-10T01:54:20.719Z,0.00
2018-05-10T01:55:20.743Z,0.00
2018-05-10T01:56:20.789Z,0.00
2018-05-10T01:57:20.837Z,0.00
2018-05-10T01:58:20.885Z,0.00
2018-05-10T01:59:20.968Z,0.00
2018-05-10T02:00:20.982Z,0.00
2018-05-10T02:01:21.034Z,0.00
2018-05-10T02:02:21.082Z,0.00
2018-05-10T02:03:21.764Z,0.00
2018-05-10T02:04:21.202Z,0.00
2018-05-10T02:05:21.225Z,0.00
2018-05-10T02:06:21.274Z,0.00
2018-05-10T02:07:21.325Z,0.00
2018-05-10T02:08:21.371Z,0.00
2018-05-10T02:09:21.456Z,0.00
2018-05-10T02:10:21.468Z,0.00
2018-05-10T02:11:21.517Z,0.00
2018-05-10T02:12:21.567Z,0.00
2018-05-10T02:13:21.613Z,0.00
2018-05-10T02:14:21.698Z,0.00
2018-05-10T02:15:21.714Z,0.00
2018-05-10T02:16:21.759Z,0.00
2018-05-10T02:17:21.811Z,0.00
2018-05-10T02:18:21.858Z,0.00
2018-05-10T02:19:21.948Z,0.00
2018-05-10T02:20:21.954Z,0.00
2018-05-10T02:21:22.002Z,0.00
2018-05-10T02:22:22.054Z,0.00
2018-05-10T02:23:22.099Z,0.00
2018-05-10T02:24:22.182Z,0.00
2018-05-10T02:25:22.196Z,0.00
2018-05-10T02:26:22.244Z,0.00
2018-05-10T02:27:22.294Z,0.00
2018-05-10T02:28:22.341Z,0.00
2018-05-10T02:29:22.415Z,0.00
2018-05-10T02:30:22.438Z,0.00
2018-05-10T02:31:22.510Z,0.00
2018-05-10T02:32:22.535Z,0.00
2018-05-10T02:33:22.583Z,0.00
2018-05-10T02:34:22.636Z,0.00
2018-05-10T02:35:22.685Z,0.00
2018-05-10T02:36:22.841Z,0.00
2018-05-10T02:37:22.779Z,0.00
2018-05-10T02:38:22.831Z,0.00
2018-05-10T02:39:22.881Z,0.00
2018-05-10T02:40:22.929Z,0.00
2018-05-10T02:41:23.014Z,0.00
2018-05-10T02:42:23.020Z,0.00
2018-05-10T02:43:23.071Z,0.00
2018-05-10T02:44:23.118Z,0.00
2018-05-10T02:45:23.166Z,0.00
2018-05-10T02:46:23.244Z,0.00
2018-05-10T02:47:23.268Z,0.00
2018-05-10T02:48:23.311Z,0.00
2018-05-10T02:49:23.360Z,0.00
2018-05-10T02:50:23.409Z,0.00
2018-05-10T02:51:23.482Z,0.00
2018-05-10T02:52:23.508Z,0.00
2018-05-10T02:53:23.555Z,0.00
2018-05-10T02:54:23.601Z,0.00
2018-05-10T02:55:23.649Z,0.00
2018-05-10T02:56:23.719Z,0.00
2018-05-10T02:57:23.771Z,0.00
2018-05-10T02:58:23.799Z,0.00
2018-05-10T02:59:23.844Z,0.00
2018-05-10T03:00:23.890Z,0.00
2018-05-10T03:01:23.941Z,0.00
2018-05-10T03:02:24.012Z,0.00
2018-05-10T03:03:24.040Z,0.00
2018-05-10T03:04:24.179Z,0.00
2018-05-10T03:05:24.131Z,0.00
2018-05-10T03:06:24.180Z,0.00
2018-05-10T03:07:24.252Z,0.00
2018-05-10T03:08:24.283Z,0.00
2018-05-10T03:09:24.332Z,0.00
2018-05-10T03:10:24.373Z,0.00
2018-05-10T03:11:24.421Z,0.00
2018-05-10T03:12:24.495Z,0.00
2018-05-10T03:13:24.519Z,0.00
2018-05-10T03:14:24.565Z,0.00
2018-05-10T03:15:24.615Z,0.00
2018-05-10T03:16:24.663Z,0.00
2018-05-10T03:17:24.740Z,0.00
2018-05-10T03:18:24.759Z,0.00
2018-05-10T03:19:24.807Z,0.00
2018-05-10T03:20:24.857Z,0.00
2018-05-10T03:21:24.904Z,0.00
2018-05-10T03:22:24.984Z,0.00
2018-05-10T03:23:25.001Z,0.00
2018-05-10T03:24:25.048Z,0.00
2018-05-10T03:25:25.101Z,4.00
2018-05-10T03:26:25.147Z,4.00
2018-05-10T03:27:25.229Z,0.00
2018-05-10T03:28:25.247Z,4.00
2018-05-10T03:29:25.298Z,4.00
2018-05-10T03:30:25.342Z,8.00
2018-05-10T03:31:25.389Z,4.00
2018-05-10T03:32:25.461Z,8.00
2018-05-10T03:33:25.510Z,4.00
2018-05-10T03:34:25.540Z,8.00
2018-05-10T03:35:25.586Z,12.00
2018-05-10T03:36:25.632Z,12.00
2018-05-10T03:37:25.679Z,12.00
2018-05-10T03:38:25.769Z,12.00
2018-05-10T03:39:25.790Z,12.00
2018-05-10T03:40:25.892Z,16.00
2018-05-10T03:41:25.872Z,20.00
2018-05-10T03:42:25.923Z,20.00
2018-05-10T03:43:26.015Z,24.00
2018-05-10T03:44:26.040Z,24.00
2018-05-10T03:45:26.068Z,28.00
2018-05-10T03:46:26.141Z,32.00
2018-05-10T03:47:26.165Z,32.00
2018-05-10T03:48:26.236Z,36.00
2018-05-10T03:49:26.285Z,44.00
2018-05-10T03:50:26.311Z,48.00
2018-05-10T03:51:26.360Z,52.00
2018-05-10T03:52:26.407Z,56.00
2018-05-10T03:53:26.462Z,68.00
2018-05-10T03:54:26.533Z,76.00
2018-05-10T03:55:26.556Z,84.00
2018-05-10T03:56:26.603Z,88.00
2018-05-10T03:57:26.652Z,88.00
2018-05-10T03:58:26.701Z,96.00
2018-05-10T03:59:26.777Z,100.00
2018-05-10T04:00:26.823Z,100.00
2018-05-10T04:01:26.849Z,100.00
2018-05-10T04:02:26.897Z,104.00
2018-05-10T04:03:26.946Z,120.00
2018-05-10T04:04:27.019Z,132.00
2018-05-10T04:05:27.044Z,132.00
2018-05-10T04:06:27.096Z,132.00
2018-05-10T04:07:27.143Z,132.00
2018-05-10T04:08:27.191Z,140.00
2018-05-10T04:09:27.261Z,152.00
2018-05-10T04:10:27.289Z,164.00
2018-05-10T04:11:27.359Z,188.00
2018-05-10T04:12:27.384Z,212.00
2018-05-10T04:13:27.438Z,236.00
2018-05-10T04:14:27.517Z,252.00
2018-05-10T04:15:27.596Z,252.00
2018-05-10T04:16:27.578Z,236.00
2018-05-10T04:17:27.630Z,228.00
2018-05-10T04:18:27.680Z,224.00
2018-05-10T04:19:27.754Z,228.00
2018-05-10T04:20:27.775Z,244.00
2018-05-10T04:21:27.828Z,268.00
2018-05-10T04:22:27.877Z,268.00
2018-05-10T04:23:27.922Z,268.00
2018-05-10T04:24:27.995Z,264.00
2018-05-10T04:25:28.021Z,264.00
2018-05-10T04:26:28.095Z,272.00
2018-05-10T04:27:28.119Z,284.00
2018-05-10T04:28:28.168Z,296.00
2018-05-10T04:29:28.217Z,300.00
2018-05-10T04:30:28.264Z,296.00
2018-05-10T04:31:28.339Z,300.00
2018-05-10T04:32:28.362Z,288.00
2018-05-10T04:33:28.413Z,292.00
2018-05-10T04:34:28.464Z,292.00
2018-05-10T04:35:28.510Z,304.00
2018-05-10T04:36:28.584Z,308.00
2018-05-10T04:37:28.608Z,308.00
2018-05-10T04:38:28.668Z,320.00
2018-05-10T04:39:28.709Z,296.00
2018-05-10T04:40:28.754Z,264.00
2018-05-10T04:41:28.827Z,264.00
2018-05-10T04:42:28.852Z,264.00
2018-05-10T04:43:28.906Z,272.00
2018-05-10T04:44:28.950Z,272.00
2018-05-10T04:45:28.998Z,256.00
2018-05-10T04:46:29.082Z,228.00
2018-05-10T04:47:29.098Z,220.00
2018-05-10T04:48:29.147Z,244.00
2018-05-10T04:49:29.196Z,260.00
2018-05-10T04:50:29.243Z,272.00
2018-05-10T04:51:29.325Z,276.00
2018-05-10T04:52:29.350Z,296.00
2018-05-10T04:53:29.390Z,320.00
2018-05-10T04:54:29.438Z,340.00
2018-05-10T04:55:29.490Z,368.00
2018-05-10T04:56:29.559Z,404.00
2018-05-10T04:57:29.595Z,408.00
2018-05-10T04:58:29.665Z,396.00
2018-05-10T04:59:29.684Z,396.00
2018-05-10T05:00:29.733Z,396.00
2018-05-10T05:01:29.779Z,416.00
2018-05-10T05:02:29.836Z,464.00
2018-05-10T05:03:29.965Z,492.00
2018-05-10T05:04:29.927Z,484.00
2018-05-10T05:05:29.980Z,448.00
2018-05-10T05:06:30.024Z,432.00
2018-05-10T05:07:30.075Z,428.00
2018-05-10T05:08:30.150Z,416.00
2018-05-10T05:09:30.170Z,404.00
2018-05-10T05:10:30.218Z,400.00
2018-05-10T05:11:30.268Z,388.00
2018-05-10T05:12:30.319Z,388.00
2018-05-10T05:13:30.391Z,420.00
2018-05-10T05:14:30.419Z,468.00
2018-05-10T05:15:30.463Z,484.00
2018-05-10T05:16:30.511Z,484.00
2018-05-10T05:17:30.562Z,512.00
2018-05-10T05:18:30.636Z,604.00
2018-05-10T05:19:30.753Z,736.00
2018-05-10T05:20:30.706Z,892.00
2018-05-10T05:21:30.841Z,1048.00
2018-05-10T05:22:30.808Z,1176.00
2018-05-10T05:23:30.854Z,1308.00
2018-05-10T05:24:30.925Z,1488.00
2018-05-10T05:25:30.975Z,1788.00
2018-05-10T05:26:31.000Z,2196.00
2018-05-10T05:27:31.051Z,2704.00
2018-05-10T05:28:31.164Z,3240.00
2018-05-10T05:29:31.146Z,3688.00
2018-05-10T05:30:31.218Z,4108.00
2018-05-10T05:31:31.249Z,4572.00
2018-05-10T05:32:31.290Z,4992.00
2018-05-10T05:33:31.343Z,5172.00
2018-05-10T05:34:31.398Z,5944.00
2018-05-10T05:35:31.557Z,7472.00
2018-05-10T05:36:31.486Z,9052.00
2018-05-10T05:37:31.538Z,10144.00
2018-05-10T05:38:31.585Z,9864.00
2018-05-10T05:39:31.636Z,7880.00
2018-05-10T05:40:31.704Z,5796.00
2018-05-10T05:41:31.755Z,4856.00
2018-05-10T05:42:31.780Z,4632.00
2018-05-10T05:43:31.923Z,4848.00
2018-05-10T05:44:31.875Z,4804.00
2018-05-10T05:45:31.924Z,4128.00
2018-05-10T05:46:32.027Z,3956.00
2018-05-10T05:47:32.023Z,4424.00
2018-05-10T05:48:32.074Z,4732.00
2018-05-10T05:49:32.121Z,5240.00
2018-05-10T05:50:32.168Z,5748.00
2018-05-10T05:51:32.257Z,6756.00
2018-05-10T05:52:32.268Z,7588.00
2018-05-10T05:53:32.316Z,7176.00
2018-05-10T05:54:32.367Z,5672.00
2018-05-10T05:55:32.413Z,4672.00
2018-05-10T05:56:32.495Z,4284.00
2018-05-10T05:57:32.511Z,4000.00
2018-05-10T05:58:32.560Z,3968.00
2018-05-10T05:59:32.614Z,4184.00
2018-05-10T06:00:32.660Z,4080.00
2018-05-10T06:01:32.729Z,3740.00
2018-05-10T06:02:32.783Z,3712.00
2018-05-10T06:03:32.803Z,4044.00
2018-05-10T06:04:32.854Z,4440.00
2018-05-10T06:05:32.901Z,4636.00
2018-05-10T06:06:32.949Z,4368.00
2018-05-10T06:07:33.023Z,4164.00
2018-05-10T06:08:33.068Z,4308.00
2018-05-10T06:09:33.100Z,4256.00
2018-05-10T06:10:33.144Z,4080.00
2018-05-10T06:11:33.195Z,4148.00
2018-05-10T06:12:33.274Z,4536.00
2018-05-10T06:13:33.297Z,5292.00
2018-05-10T06:14:33.339Z,6088.00
2018-05-10T06:15:33.414Z,6656.00
2018-05-10T06:16:33.436Z,7660.00
2018-05-10T06:17:33.523Z,8032.00
2018-05-10T06:18:33.534Z,7884.00
2018-05-10T06:19:33.581Z,7456.00
2018-05-10T06:20:33.632Z,6948.00
2018-05-10T06:21:33.678Z,6684.00
2018-05-10T06:22:33.755Z,6348.00
2018-05-10T06:23:33.775Z,6036.00
2018-05-10T06:24:33.823Z,5376.00
2018-05-10T06:25:33.874Z,4800.00
2018-05-10T06:26:33.925Z,4328.00
2018-05-10T06:27:34.000Z,3936.00
2018-05-10T06:28:34.042Z,3528.00
2018-05-10T06:29:34.065Z,3096.00
2018-05-10T06:30:34.114Z,2724.00
2018-05-10T06:31:34.168Z,2520.00
2018-05-10T06:32:34.210Z,2384.00
2018-05-10T06:33:34.282Z,2252.00
2018-05-10T06:34:34.335Z,2096.00
2018-05-10T06:35:34.360Z,1916.00
2018-05-10T06:36:34.407Z,1824.00
2018-05-10T06:37:34.460Z,1844.00
2018-05-10T06:38:34.535Z,1992.00
2018-05-10T06:39:34.559Z,2168.00
2018-05-10T06:40:34.600Z,2360.00
2018-05-10T06:41:34.718Z,2512.00
2018-05-10T06:42:34.698Z,2728.00
2018-05-10T06:43:34.765Z,3012.00
2018-05-10T06:44:34.816Z,3284.00
2018-05-10T06:45:34.840Z,3628.00
2018-05-10T06:46:34.887Z,4024.00
2018-05-10T06:47:34.937Z,4452.00
2018-05-10T06:48:34.987Z,4792.00
2018-05-10T06:49:35.056Z,4948.00
2018-05-10T06:50:35.082Z,4880.00
2018-05-10T06:51:35.133Z,4584.00
2018-05-10T06:52:35.179Z,4248.00
2018-05-10T06:53:35.227Z,4008.00
2018-05-10T06:54:35.311Z,3884.00
2018-05-10T06:55:35.322Z,3852.00
2018-05-10T06:56:35.373Z,3828.00
2018-05-10T06:57:35.417Z,3812.00
2018-05-10T06:58:35.469Z,3824.00
2018-05-10T06:59:35.546Z,3832.00
2018-05-10T07:00:35.564Z,3856.00
2018-05-10T07:01:35.612Z,3900.00
2018-05-10T07:02:35.665Z,3976.00
2018-05-10T07:03:35.711Z,4064.00
2018-05-10T07:04:35.782Z,4156.00
2018-05-10T07:05:35.830Z,4244.00
2018-05-10T07:06:35.942Z,4432.00
2018-05-10T07:07:35.901Z,4676.00
2018-05-10T07:08:35.952Z,5032.00
2018-05-10T07:09:36.114Z,5632.00
2018-05-10T07:10:36.085Z,6244.00
2018-05-10T07:11:36.100Z,6676.00
2018-05-10T07:12:36.144Z,6820.00
2018-05-10T07:13:36.192Z,6928.00
2018-05-10T07:14:36.244Z,7084.00
2018-05-10T07:15:36.328Z,7268.00
2018-05-10T07:16:36.341Z,7332.00
2018-05-10T07:17:36.390Z,7348.00
2018-05-10T07:18:36.435Z,7436.00
2018-05-10T07:19:36.484Z,7528.00
2018-05-10T07:20:36.557Z,7792.00
2018-05-10T07:21:36.605Z,8128.00
2018-05-10T07:22:36.633Z,8304.00
2018-05-10T07:23:36.682Z,8632.00
2018-05-10T07:24:36.726Z,9288.00
2018-05-10T07:25:36.818Z,10108.00
2018-05-10T07:26:36.824Z,11100.00
2018-05-10T07:27:36.872Z,12252.00
2018-05-10T07:28:36.931Z,13712.00
2018-05-10T07:29:36.970Z,15308.00
2018-05-10T07:30:37.054Z,17132.00
2018-05-10T07:31:37.072Z,19584.00
2018-05-10T07:32:37.120Z,22208.00
2018-05-10T07:33:37.178Z,23808.00
2018-05-10T07:34:37.216Z,24192.00
2018-05-10T07:35:37.291Z,24608.00
2018-05-10T07:36:37.336Z,25472.00
2018-05-10T07:37:37.362Z,26592.00
2018-05-10T07:38:37.413Z,27360.00
2018-05-10T07:39:37.463Z,27584.00
2018-05-10T07:40:37.512Z,26944.00
2018-05-10T07:41:37.583Z,25856.00
2018-05-10T07:42:37.608Z,24000.00
2018-05-10T07:43:37.666Z,21920.00
2018-05-10T07:44:37.708Z,20448.00
2018-05-10T07:45:37.759Z,20160.00
2018-05-10T07:46:37.839Z,20288.00
2018-05-10T07:47:37.856Z,20480.00
2018-05-10T07:48:37.904Z,20768.00
2018-05-10T07:49:37.953Z,21088.00
2018-05-10T07:50:38.015Z,21248.00
2018-05-10T07:51:38.099Z,21376.00
2018-05-10T07:52:38.102Z,21568.00
2018-05-10T07:53:38.151Z,21824.00
2018-05-10T07:54:38.202Z,22208.00
2018-05-10T07:55:38.253Z,22624.00
2018-05-10T07:56:38.333Z,23008.00
2018-05-10T07:57:38.349Z,23616.00
2018-05-10T07:58:38.401Z,23776.00
2018-05-10T07:59:38.451Z,24096.00
2018-05-10T08:00:38.502Z,24448.00
2018-05-10T08:01:38.570Z,24192.00
2018-05-10T08:02:38.633Z,24384.00
2018-05-10T08:03:39.322Z,24512.00
2018-05-10T08:04:38.700Z,24640.00
2018-05-10T08:05:38.745Z,25216.00
2018-05-10T08:06:38.797Z,25472.00
2018-05-10T08:07:38.869Z,25728.00
2018-05-10T08:08:38.894Z,25536.00
2018-05-10T08:09:38.949Z,25696.00
2018-05-10T08:10:39.005Z,26592.00
2018-05-10T08:11:39.045Z,29024.00
2018-05-10T08:12:39.120Z,32352.00
2018-05-10T08:13:39.143Z,37344.00
2018-05-10T08:14:39.197Z,39456.00
2018-05-10T08:15:39.250Z,36384.00
2018-05-10T08:16:39.297Z,51328.00
2018-05-10T08:17:39.366Z,87136.00
2018-05-10T08:18:39.419Z,83424.00
2018-05-10T08:19:39.446Z,49568.00
2018-05-10T08:20:39.494Z,43392.00
2018-05-10T08:21:39.549Z,83360.00
2018-05-10T08:22:39.618Z,87008.00
2018-05-10T08:23:39.647Z,60864.00
2018-05-10T08:24:39.695Z,59264.00
2018-05-10T08:25:39.753Z,43520.00
2018-05-10T08:26:39.797Z,37984.00
2018-05-10T08:27:39.884Z,31424.00
2018-05-10T08:28:39.896Z,27040.00
2018-05-10T08:29:39.950Z,27008.00
2018-05-10T08:30:40.002Z,26560.00
2018-05-10T08:31:40.049Z,26368.00
2018-05-10T08:32:40.123Z,26112.00
2018-05-10T08:33:40.154Z,26464.00
2018-05-10T08:34:40.203Z,26656.00
2018-05-10T08:35:40.283Z,27168.00
2018-05-10T08:36:40.370Z,29056.00
2018-05-10T08:37:40.352Z,32000.00
2018-05-10T08:38:40.429Z,31936.00
2018-05-10T08:39:40.455Z,30528.00
2018-05-10T08:40:40.531Z,32512.00
2018-05-10T08:41:40.555Z,35328.00
2018-05-10T08:42:40.607Z,36704.00
2018-05-10T08:43:40.683Z,38784.00
2018-05-10T08:44:40.713Z,40736.00
2018-05-10T08:45:40.784Z,41824.00
2018-05-10T08:46:40.814Z,39968.00
2018-05-10T08:47:40.863Z,44864.00
2018-05-10T08:48:40.918Z,74240.00
2018-05-10T08:49:40.963Z,62752.00
2018-05-10T08:50:41.051Z,48736.00
2018-05-10T08:51:41.066Z,69984.00
2018-05-10T08:52:41.120Z,57472.00
2018-05-10T08:53:41.171Z,93184.00
2018-05-10T08:54:41.222Z,58752.00
2018-05-10T08:55:41.314Z,48992.00
2018-05-10T08:56:41.323Z,47648.00
2018-05-10T08:57:41.375Z,50368.00
2018-05-10T08:58:41.432Z,56064.00
2018-05-10T08:59:41.476Z,56384.00
2018-05-10T09:00:41.554Z,77312.00
2018-05-10T09:01:41.583Z,76864.00
2018-05-10T09:02:41.654Z,47744.00
2018-05-10T09:03:41.683Z,36128.00
2018-05-10T09:04:41.735Z,36672.00
2018-05-10T09:05:41.785Z,65312.00
2018-05-10T09:06:41.870Z,52704.00
2018-05-10T09:07:41.894Z,77600.00
2018-05-10T09:08:41.940Z,80320.00
2018-05-10T09:09:41.990Z,83072.00
2018-05-10T09:10:42.044Z,70624.00
2018-05-10T09:11:42.120Z,61440.00
2018-05-10T09:12:42.174Z,55360.00
2018-05-10T09:13:42.203Z,52544.00
2018-05-10T09:14:42.251Z,57952.00
2018-05-10T09:15:42.312Z,52032.00
2018-05-10T09:16:42.360Z,53504.00
2018-05-10T09:17:42.435Z,55648.00
2018-05-10T09:18:42.458Z,52512.00
2018-05-10T09:19:42.511Z,50464.00
2018-05-10T09:20:42.571Z,45280.00
2018-05-10T09:21:42.615Z,47232.00
2018-05-10T09:22:42.693Z,47840.00
2018-05-10T09:23:42.724Z,49216.00
2018-05-10T09:24:42.771Z,51232.00
2018-05-10T09:25:42.826Z,54176.00
2018-05-10T09:26:42.876Z,57152.00
2018-05-10T09:27:42.983Z,61024.00
2018-05-10T09:28:42.979Z,53280.00
2018-05-10T09:29:43.035Z,50656.00
2018-05-10T09:30:43.087Z,51936.00
2018-05-10T09:31:43.149Z,57152.00
2018-05-10T09:32:43.213Z,53696.00
2018-05-10T09:33:43.245Z,48576.00
2018-05-10T09:34:43.324Z,51520.00
2018-05-10T09:35:43.346Z,51584.00
2018-05-10T09:36:43.398Z,49696.00
2018-05-10T09:37:43.450Z,51136.00
2018-05-10T09:38:43.508Z,48832.00
2018-05-10T09:39:43.583Z,51392.00
2018-05-10T09:40:43.613Z,55936.00
2018-05-10T09:41:43.676Z,57152.00
2018-05-10T09:42:43.716Z,51584.00
2018-05-10T09:43:43.767Z,54048.00
2018-05-10T09:44:43.847Z,58176.00
2018-05-10T09:45:43.871Z,60288.00
2018-05-10T09:46:43.923Z,64992.00
2018-05-10T09:47:43.977Z,49568.00
2018-05-10T09:48:44.026Z,53920.00
2018-05-10T09:49:44.112Z,53088.00
2018-05-10T09:50:44.134Z,56096.00
2018-05-10T09:51:44.184Z,53088.00
2018-05-10T09:52:44.275Z,56000.00
2018-05-10T09:53:44.288Z,65504.00
2018-05-10T09:54:44.375Z,58752.00
2018-05-10T09:55:44.393Z,72864.00
2018-05-10T09:56:44.444Z,52128.00
2018-05-10T09:57:44.499Z,54400.00
2018-05-10T09:58:44.549Z,59072.00
2018-05-10T09:59:44.696Z,65024.00
2018-05-10T10:00:44.659Z,57408.00
2018-05-10T10:01:44.709Z,53504.00
2018-05-10T10:02:44.766Z,50304.00
2018-05-10T10:03:44.818Z,48864.00
2018-05-10T10:04:44.893Z,47584.00
2018-05-10T10:05:44.955Z,45184.00
2018-05-10T10:06:44.968Z,42656.00
2018-05-10T10:07:45.030Z,39072.00
2018-05-10T10:08:45.076Z,38112.00
2018-05-10T10:09:45.124Z,34880.00
2018-05-10T10:10:45.215Z,33696.00
2018-05-10T10:11:45.306Z,34880.00
2018-05-10T10:12:45.282Z,35232.00
2018-05-10T10:13:45.331Z,34208.00
2018-05-10T10:14:45.386Z,33152.00
2018-05-10T10:15:45.540Z,32096.00
2018-05-10T10:16:45.493Z,32288.00
2018-05-10T10:17:45.540Z,32704.00
2018-05-10T10:18:45.592Z,33344.00
2018-05-10T10:19:45.645Z,33920.00
2018-05-10T10:20:45.720Z,35424.00
2018-05-10T10:21:45.773Z,39392.00
2018-05-10T10:22:45.800Z,36320.00
2018-05-10T10:23:45.858Z,36896.00
2018-05-10T10:24:45.908Z,36960.00
2018-05-10T10:25:45.959Z,36192.00
2018-05-10T10:26:46.034Z,34496.00
2018-05-10T10:27:46.061Z,33280.00
2018-05-10T10:28:46.116Z,32576.00
2018-05-10T10:29:46.162Z,32256.00
2018-05-10T10:30:46.228Z,32096.00
2018-05-10T10:31:46.697Z,33056.00
2018-05-10T10:32:46.867Z,35968.00
2018-05-10T10:33:46.374Z,37824.00
2018-05-10T10:34:46.427Z,39040.00
2018-05-10T10:35:46.478Z,41408.00
2018-05-10T10:36:46.552Z,37856.00
2018-05-10T10:37:46.576Z,37472.00
2018-05-10T10:38:47.205Z,39136.00
2018-05-10T10:39:46.680Z,42560.00
2018-05-10T10:40:46.738Z,41888.00
2018-05-10T10:41:46.787Z,42464.00
2018-05-10T10:42:46.840Z,43168.00
2018-05-10T10:43:46.912Z,44096.00
2018-05-10T10:44:46.937Z,44480.00
2018-05-10T10:45:46.989Z,42720.00
2018-05-10T10:46:47.045Z,40832.00
2018-05-10T10:47:47.094Z,40512.00
2018-05-10T10:48:47.172Z,40832.00
2018-05-10T10:49:47.197Z,41472.00
2018-05-10T10:50:47.251Z,41440.00
2018-05-10T10:51:47.303Z,41600.00
2018-05-10T10:52:47.359Z,40416.00
2018-05-10T10:53:47.438Z,39872.00
2018-05-10T10:54:47.458Z,40832.00
2018-05-10T10:55:47.512Z,43712.00
2018-05-10T10:56:47.562Z,44736.00
2018-05-10T10:57:47.612Z,45632.00
2018-05-10T10:58:47.697Z,41920.00
2018-05-10T10:59:47.717Z,38080.00
2018-05-10T11:00:47.769Z,35040.00
2018-05-10T11:01:47.827Z,33248.00
2018-05-10T11:02:48.398Z,32896.00
2018-05-10T11:03:47.950Z,33664.00
2018-05-10T11:04:48.215Z,35264.00
2018-05-10T11:05:48.031Z,36384.00
2018-05-10T11:06:48.085Z,36864.00
2018-05-10T11:07:48.135Z,36640.00
2018-05-10T11:08:48.254Z,36608.00
2018-05-10T11:09:48.277Z,36672.00
2018-05-10T11:10:48.320Z,37216.00
2018-05-10T11:11:48.343Z,37728.00
2018-05-10T11:12:48.404Z,38240.00
2018-05-10T11:13:48.446Z,39008.00
2018-05-10T11:14:48.499Z,42592.00
2018-05-10T11:15:48.574Z,44384.00
2018-05-10T11:16:48.601Z,42624.00
2018-05-10T11:17:48.653Z,43104.00
2018-05-10T11:18:48.707Z,41504.00
2018-05-10T11:19:48.756Z,41152.00
2018-05-10T11:20:48.844Z,41120.00
2018-05-10T11:21:48.864Z,38464.00
2018-05-10T11:22:48.918Z,36768.00
2018-05-10T11:23:48.966Z,34688.00
2018-05-10T11:24:49.019Z,32128.00
2018-05-10T11:25:49.101Z,29792.00
2018-05-10T11:26:49.122Z,27776.00
2018-05-10T11:27:49.178Z,26208.00
2018-05-10T11:28:49.228Z,24896.00
2018-05-10T11:29:49.277Z,23744.00
2018-05-10T11:30:49.354Z,22592.00
2018-05-10T11:31:49.410Z,21376.00
2018-05-10T11:32:49.474Z,20192.00
2018-05-10T11:33:49.492Z,19392.00
2018-05-10T11:34:49.541Z,19104.00
2018-05-10T11:35:49.590Z,19424.00
2018-05-10T11:36:49.667Z,20000.00
2018-05-10T11:37:49.697Z,20480.00
2018-05-10T11:38:49.750Z,20896.00
2018-05-10T11:39:49.798Z,20832.00
2018-05-10T11:40:49.852Z,20448.00
2018-05-10T11:41:49.925Z,19744.00
2018-05-10T11:42:49.952Z,18720.00
2018-05-10T11:43:50.001Z,17528.00
2018-05-10T11:44:50.053Z,17016.00
2018-05-10T11:45:50.104Z,17120.00
2018-05-10T11:46:50.188Z,17008.00
2018-05-10T11:47:50.210Z,16396.00
2018-05-10T11:48:50.257Z,15836.00
2018-05-10T11:49:50.309Z,15752.00
2018-05-10T11:50:50.359Z,16372.00
2018-05-10T11:51:50.452Z,16680.00
2018-05-10T11:52:50.464Z,16196.00
2018-05-10T11:53:50.514Z,15348.00
2018-05-10T11:54:50.571Z,14792.00
2018-05-10T11:55:50.618Z,14468.00
2018-05-10T11:56:50.689Z,13972.00
2018-05-10T11:57:51.225Z,13312.00
2018-05-10T11:58:50.773Z,13128.00
2018-05-10T11:59:50.821Z,13664.00
2018-05-10T12:00:50.869Z,14796.00
2018-05-10T12:01:50.922Z,16424.00
2018-05-10T12:02:50.996Z,18432.00
2018-05-10T12:03:51.022Z,20000.00
2018-05-10T12:04:51.075Z,21056.00
2018-05-10T12:05:51.128Z,21664.00
2018-05-10T12:06:51.177Z,22528.00
2018-05-10T12:07:51.266Z,24096.00
2018-05-10T12:08:51.279Z,25920.00
2018-05-10T12:09:51.332Z,27968.00
2018-05-10T12:10:51.384Z,31136.00
2018-05-10T12:11:51.435Z,35008.00
2018-05-10T12:12:51.510Z,38080.00
2018-05-10T12:13:51.533Z,40512.00
2018-05-10T12:14:51.584Z,47040.00
2018-05-10T12:15:51.636Z,50720.00
2018-05-10T12:16:51.685Z,53440.00
2018-05-10T12:17:51.770Z,50016.00
2018-05-10T12:18:51.790Z,48800.00
2018-05-10T12:19:51.840Z,43776.00
2018-05-10T12:20:51.891Z,36672.00